createdAt,value
2022-10-22T00:02:29.816Z,97013.22
2022-10-22T00:05:31.333Z,97001.59
2022-10-22T00:08:33.105Z,97009.56
2022-10-22T00:11:34.626Z,97021.81
2022-10-22T00:14:36.564Z,97042.66
2022-10-22T00:17:38.333Z,97053.28
2022-10-22T00:20:40.317Z,97065.38
2022-10-22T00:23:43.041Z,97079.44
2022-10-22T00:26:44.553Z,97098.00
2022-10-22T00:29:46.023Z,97096.94
2022-10-22T00:32:47.954Z,97063.44
2022-10-22T00:35:49.403Z,97068.19
2022-10-22T00:38:50.855Z,97051.41
2022-10-22T00:41:54.000Z,97049.78
2022-10-22T00:45:24.658Z,97057.56
2022-10-22T00:48:29.936Z,97071.41
2022-10-22T00:51:35.562Z,97071.00
2022-10-22T00:54:38.325Z,97079.38
2022-10-22T00:57:40.667Z,97087.34
2022-10-22T01:00:42.833Z,97082.66
2022-10-22T01:03:44.358Z,97078.56
2022-10-22T01:06:47.299Z,97071.19
2022-10-22T01:10:17.311Z,97082.66
2022-10-22T01:13:39.664Z,97071.19
2022-10-22T01:16:59.264Z,97071.19
2022-10-22T01:20:24.019Z,97068.88
2022-10-22T01:23:50.595Z,97071.94
2022-10-22T01:27:24.265Z,97054.63
2022-10-22T01:30:26.096Z,97052.41
2022-10-22T01:33:29.305Z,97046.88
2022-10-22T01:36:33.012Z,97050.34
2022-10-22T01:39:36.684Z,97052.41
2022-10-22T01:42:38.130Z,97049.53
2022-10-22T01:45:45.778Z,97056.25
2022-10-22T01:49:16.493Z,97060.38
2022-10-22T01:52:34.483Z,97061.19
2022-10-22T01:56:12.971Z,97070.59
2022-10-22T01:59:29.407Z,97090.38
2022-10-22T02:02:43.266Z,97111.13
2022-10-22T02:06:01.667Z,97108.63
2022-10-22T02:09:04.355Z,97103.94
2022-10-22T02:12:08.815Z,97112.94
2022-10-22T02:15:12.054Z,97112.38
2022-10-22T02:18:20.633Z,97118.56
2022-10-22T02:21:22.366Z,97109.81
2022-10-22T02:24:24.237Z,97091.66
2022-10-22T02:27:49.128Z,97103.09
2022-10-22T02:30:59.541Z,97118.44
2022-10-22T02:34:10.027Z,97117.22
2022-10-22T02:37:12.404Z,97122.72
2022-10-22T02:40:13.924Z,97106.38
2022-10-22T02:43:15.508Z,97100.19
2022-10-22T02:46:17.119Z,97101.81
2022-10-22T02:49:18.603Z,97102.81
2022-10-22T02:52:20.291Z,97107.72
2022-10-22T02:55:21.953Z,97104.22
2022-10-22T02:58:23.451Z,97081.75
2022-10-22T03:01:24.955Z,97073.38
2022-10-22T03:04:26.480Z,97073.97
2022-10-22T03:07:27.946Z,97072.94
2022-10-22T03:10:29.453Z,97077.25
2022-10-22T03:13:30.908Z,97064.97
2022-10-22T03:16:32.406Z,97071.94
2022-10-22T03:19:33.924Z,97072.50
2022-10-22T03:22:38.713Z,97084.97
2022-10-22T03:25:41.988Z,97081.94
2022-10-22T03:28:43.836Z,97074.75
2022-10-22T03:31:45.351Z,97059.41
2022-10-22T03:34:47.034Z,97081.59
2022-10-22T03:37:48.841Z,97081.22
2022-10-22T03:40:50.614Z,97055.19
2022-10-22T03:43:53.283Z,97065.63
2022-10-22T03:46:58.609Z,97073.56
2022-10-22T03:50:05.324Z,97076.22
2022-10-22T03:53:08.548Z,97074.19
2022-10-22T03:56:11.486Z,97080.69
2022-10-22T03:59:13.187Z,97080.06
2022-10-22T04:02:14.740Z,97076.59
2022-10-22T04:05:16.226Z,97080.25
2022-10-22T04:08:17.743Z,97072.88
2022-10-22T04:11:19.304Z,97078.75
2022-10-22T04:14:20.756Z,97075.22
2022-10-22T04:17:22.206Z,97083.78
2022-10-22T04:20:23.695Z,97082.53
2022-10-22T04:23:25.201Z,97094.94
2022-10-22T04:26:27.272Z,97095.97
2022-10-22T04:29:28.700Z,97099.88
2022-10-22T04:32:30.208Z,97101.75
2022-10-22T04:35:31.683Z,97105.72
2022-10-22T04:38:33.149Z,97107.38
2022-10-22T04:41:37.541Z,97109.22
2022-10-22T04:44:39.088Z,97093.56
2022-10-22T04:47:42.745Z,97116.47
2022-10-22T04:50:44.409Z,97113.56
2022-10-22T04:53:49.630Z,97112.13
2022-10-22T04:56:51.099Z,97113.56
2022-10-22T04:59:52.513Z,97107.47
2022-10-22T05:02:53.983Z,97105.00
2022-10-22T05:05:55.396Z,97106.63
2022-10-22T05:08:59.323Z,97109.28
2022-10-22T05:12:00.835Z,97113.56
2022-10-22T05:15:02.275Z,97105.81
2022-10-22T05:18:03.942Z,97106.84
2022-10-22T05:21:09.456Z,97105.81
2022-10-22T05:24:10.992Z,97110.13
2022-10-22T05:27:12.537Z,97109.28
2022-10-22T05:30:14.014Z,97111.09
2022-10-22T05:33:15.684Z,97119.25
2022-10-22T05:36:20.121Z,97122.94
2022-10-22T05:39:21.646Z,97131.44
2022-10-22T05:42:23.367Z,97134.44
2022-10-22T05:45:24.853Z,97121.59
2022-10-22T05:48:26.398Z,97134.59
2022-10-22T05:51:30.220Z,97142.16
2022-10-22T05:54:31.696Z,97124.34
2022-10-22T05:57:36.187Z,97151.31
2022-10-22T06:00:37.720Z,97156.41
2022-10-22T06:03:39.276Z,97160.22
2022-10-22T06:06:44.404Z,97168.59
2022-10-22T06:09:47.638Z,97173.66
2022-10-22T06:12:49.653Z,97174.50
2022-10-22T06:15:53.421Z,97174.50
2022-10-22T06:18:54.968Z,97180.59
2022-10-22T06:21:56.581Z,97183.50
2022-10-22T06:24:58.057Z,97187.41
2022-10-22T06:27:59.719Z,97199.09
2022-10-22T06:31:03.184Z,97183.56
2022-10-22T06:34:07.241Z,97196.75
2022-10-22T06:37:09.957Z,97204.84
2022-10-22T06:40:12.048Z,97196.25
2022-10-22T06:43:14.916Z,97210.34
2022-10-22T06:46:19.990Z,97225.63
2022-10-22T06:49:21.898Z,97217.41
2022-10-22T06:52:23.604Z,97216.13
2022-10-22T06:55:25.263Z,97216.41
2022-10-22T06:58:26.921Z,97228.25
2022-10-22T07:01:31.433Z,97233.19
2022-10-22T07:04:33.000Z,97240.78
2022-10-22T07:07:37.527Z,97239.47
2022-10-22T07:10:46.489Z,97253.25
2022-10-22T07:13:49.092Z,97256.59
2022-10-22T07:16:50.549Z,97247.28
2022-10-22T07:19:52.107Z,97260.94
2022-10-22T07:22:56.396Z,97262.81
2022-10-22T07:29:28.393Z,97265.59
2022-10-22T07:32:29.866Z,97273.69
2022-10-22T07:35:32.078Z,97275.19
2022-10-22T07:38:34.161Z,97290.84
2022-10-22T07:41:35.664Z,97279.69
2022-10-22T07:44:37.164Z,97284.00
2022-10-22T07:47:42.554Z,97286.66
2022-10-22T07:53:52.264Z,97289.00
2022-10-22T07:56:53.762Z,97272.44
2022-10-22T07:59:57.141Z,97279.66
2022-10-22T08:02:58.696Z,97287.41
2022-10-22T08:06:00.949Z,97285.97
2022-10-22T08:09:03.149Z,97291.09
2022-10-22T08:12:05.304Z,97286.56
2022-10-22T08:15:07.791Z,97286.97
2022-10-22T08:18:09.975Z,97285.94
2022-10-22T08:21:12.548Z,97290.28
2022-10-22T08:24:14.884Z,97298.69
2022-10-22T08:27:16.444Z,97294.00
2022-10-22T08:30:18.093Z,97290.50
2022-10-22T08:33:19.623Z,97293.19
2022-10-22T08:36:24.187Z,97283.94
2022-10-22T08:39:26.001Z,97294.19
2022-10-22T08:42:27.480Z,97292.75
2022-10-22T08:45:40.458Z,97304.00
2022-10-22T08:48:58.800Z,97296.78
2022-10-22T08:52:00.846Z,97287.56
2022-10-22T08:55:03.401Z,97296.94
2022-10-22T08:58:34.180Z,97295.94
2022-10-22T09:01:39.813Z,97300.63
2022-10-22T09:04:49.762Z,97304.69
2022-10-22T09:07:53.049Z,97298.50
2022-10-22T09:11:07.163Z,97309.31
2022-10-22T09:17:33.901Z,97308.81
2022-10-22T09:20:44.365Z,97311.78
2022-10-22T09:23:54.911Z,97310.66
2022-10-22T09:26:57.537Z,97313.81
2022-10-22T09:30:01.774Z,97314.00
2022-10-22T09:33:11.456Z,97316.28
2022-10-22T09:36:18.484Z,97325.47
2022-10-22T09:39:33.629Z,97325.81
2022-10-22T09:42:36.129Z,97325.50
2022-10-22T09:45:37.605Z,97335.84
2022-10-22T09:48:42.821Z,97340.28
2022-10-22T09:51:57.524Z,97338.03
2022-10-22T09:55:02.641Z,97340.88
2022-10-22T09:58:04.812Z,97338.94
2022-10-22T10:01:06.227Z,97342.75
2022-10-22T10:04:14.001Z,97347.13
2022-10-22T10:07:20.515Z,97357.69
2022-10-22T10:10:50.989Z,97349.22
2022-10-22T10:14:09.538Z,97355.13
2022-10-22T10:17:18.234Z,97352.91
2022-10-22T10:20:47.552Z,97348.03
2022-10-22T10:24:33.764Z,97348.31
2022-10-22T10:27:39.975Z,97342.13
2022-10-22T10:31:16.695Z,97354.59
2022-10-22T10:34:37.084Z,97348.91
2022-10-22T10:37:46.101Z,97355.69
2022-10-22T10:41:17.408Z,97348.47
2022-10-22T10:44:37.013Z,97356.91
2022-10-22T10:47:56.764Z,97354.72
2022-10-22T10:51:13.389Z,97353.66
2022-10-22T10:54:29.970Z,97352.28
2022-10-22T10:57:45.515Z,97343.16
2022-10-22T11:00:56.926Z,97332.59
2022-10-22T11:04:31.064Z,97338.19
2022-10-22T11:07:40.345Z,97340.28
2022-10-22T11:14:27.802Z,97334.03
2022-10-22T11:17:45.458Z,97331.88
2022-10-22T11:21:19.073Z,97335.63
2022-10-22T11:24:26.988Z,97333.66
2022-10-22T11:27:32.162Z,97325.13
2022-10-22T11:30:36.340Z,97333.44
2022-10-22T11:34:09.819Z,97321.16
2022-10-22T11:37:18.167Z,97326.75
2022-10-22T11:40:22.509Z,97328.97
2022-10-22T11:43:37.569Z,97322.66
2022-10-22T11:46:55.208Z,97330.13
2022-10-22T11:49:56.676Z,97325.72
2022-10-22T11:53:15.182Z,97337.13
2022-10-22T11:56:27.428Z,97319.91
2022-10-22T11:59:59.736Z,97316.72
2022-10-22T12:03:16.980Z,97325.81
2022-10-22T12:06:23.050Z,97316.34
2022-10-22T12:09:30.015Z,97321.16
2022-10-22T12:12:36.413Z,97321.13
2022-10-22T12:15:48.540Z,97315.66
2022-10-22T12:18:57.375Z,97304.53
2022-10-22T12:22:07.840Z,97317.63
2022-10-22T12:25:17.099Z,97319.50
2022-10-22T12:28:19.004Z,97313.88
2022-10-22T12:31:20.461Z,97313.72
2022-10-22T12:34:24.969Z,97305.94
2022-10-22T12:37:29.300Z,97305.78
2022-10-22T12:40:34.764Z,97306.28
2022-10-22T12:43:39.433Z,97307.09
2022-10-22T12:46:42.449Z,97299.84
2022-10-22T12:49:49.999Z,97302.53
2022-10-22T12:52:55.115Z,97304.16
2022-10-22T12:56:01.316Z,97293.66
2022-10-22T12:59:07.926Z,97297.63
2022-10-22T13:02:19.180Z,97285.59
2022-10-22T13:05:20.673Z,97281.84
2022-10-22T13:08:26.764Z,97274.38
2022-10-22T13:11:33.900Z,97271.59
2022-10-22T13:14:39.081Z,97275.78
2022-10-22T13:17:42.237Z,97281.94
2022-10-22T13:21:03.150Z,97271.38
2022-10-22T13:24:23.045Z,97271.94
2022-10-22T13:27:26.163Z,97269.25
2022-10-22T13:30:33.930Z,97266.28
2022-10-22T13:33:44.866Z,97258.66
2022-10-22T13:36:46.829Z,97263.19
2022-10-22T13:39:48.288Z,97259.25
2022-10-22T13:42:49.935Z,97270.09
2022-10-22T13:46:09.231Z,97247.44
2022-10-22T13:49:20.153Z,97262.72
2022-10-22T13:52:29.558Z,97256.63
2022-10-22T13:55:31.574Z,97258.41
2022-10-22T13:58:33.099Z,97260.47
2022-10-22T14:01:34.793Z,97262.34
2022-10-22T14:04:39.830Z,97259.69
2022-10-22T14:07:41.989Z,97252.88
2022-10-22T14:10:43.733Z,97249.84
2022-10-22T14:13:45.432Z,97254.44
2022-10-22T14:16:50.026Z,97259.56
2022-10-22T14:19:51.563Z,97259.69
2022-10-22T14:22:55.115Z,97256.19
2022-10-22T14:26:00.528Z,97255.22
2022-10-22T14:29:11.446Z,97257.22
2022-10-22T14:32:22.067Z,97259.00
2022-10-22T14:35:24.100Z,97259.56
2022-10-22T14:38:25.735Z,97258.28
2022-10-22T14:41:28.961Z,97250.88
2022-10-22T14:44:30.714Z,97247.94
2022-10-22T14:47:32.321Z,97242.59
2022-10-22T14:50:34.248Z,97227.28
2022-10-22T14:53:36.625Z,97242.78
2022-10-22T14:56:38.306Z,97247.59
2022-10-22T14:59:42.705Z,97241.69
2022-10-22T15:02:48.126Z,97255.38
2022-10-22T15:05:53.658Z,97247.63
2022-10-22T15:08:55.184Z,97241.19
2022-10-22T15:11:56.888Z,97238.47
2022-10-22T15:14:58.393Z,97240.88
2022-10-22T15:18:00.029Z,97242.22
2022-10-22T15:21:22.599Z,97239.03
2022-10-22T15:24:24.121Z,97241.53
2022-10-22T15:27:25.784Z,97256.56
2022-10-22T15:30:30.450Z,97261.75
2022-10-22T15:33:32.130Z,97266.25
2022-10-22T15:36:35.545Z,97261.09
2022-10-22T15:39:40.668Z,97275.22
2022-10-22T15:42:42.688Z,97276.28
2022-10-22T15:45:44.440Z,97283.84
2022-10-22T15:48:46.360Z,97264.13
2022-10-22T15:51:47.868Z,97282.63
2022-10-22T15:54:49.667Z,97270.25
2022-10-22T16:01:14.392Z,97286.38
2022-10-22T16:04:16.156Z,97291.72
2022-10-22T16:07:19.825Z,97292.81
2022-10-22T16:10:28.065Z,97282.97
2022-10-22T16:13:29.778Z,97297.38
2022-10-22T16:16:33.596Z,97297.63
2022-10-22T16:19:35.133Z,97300.44
2022-10-22T16:22:36.667Z,97290.53
2022-10-22T16:25:41.622Z,97285.75
2022-10-22T16:28:44.826Z,97291.34
2022-10-22T16:31:46.447Z,97286.09
2022-10-22T16:34:47.965Z,97287.44
2022-10-22T16:37:49.484Z,97277.22
2022-10-22T16:40:51.269Z,97289.56
2022-10-22T16:43:55.089Z,97278.75
2022-10-22T16:46:56.748Z,97293.94
2022-10-22T16:50:00.822Z,97297.84
2022-10-22T16:53:02.279Z,97294.78
2022-10-22T16:56:04.284Z,97299.94
2022-10-22T16:59:06.266Z,97306.06
2022-10-22T17:02:12.467Z,97304.22
2022-10-22T17:05:14.124Z,97314.06
2022-10-22T17:08:15.636Z,97320.00
2022-10-22T17:11:20.364Z,97319.59
2022-10-22T17:14:21.861Z,97314.06
2022-10-22T17:17:23.360Z,97315.44
2022-10-22T17:20:24.882Z,97302.31
2022-10-22T17:23:28.561Z,97315.78
2022-10-22T17:26:33.123Z,97300.00
2022-10-22T17:29:38.594Z,97312.91
2022-10-22T17:32:40.321Z,97303.69
2022-10-22T17:35:48.504Z,97306.75
2022-10-22T17:38:56.256Z,97316.56
2022-10-22T17:41:57.853Z,97308.38
2022-10-22T17:44:59.429Z,97312.06
2022-10-22T17:48:01.351Z,97310.59
2022-10-22T17:51:14.075Z,97304.47
2022-10-22T17:54:15.760Z,97310.78
2022-10-22T17:57:17.569Z,97309.13
2022-10-22T18:03:27.795Z,97302.34
2022-10-22T18:06:30.748Z,97306.22
2022-10-22T18:09:32.245Z,97307.03
2022-10-22T18:12:33.715Z,97303.56
2022-10-22T18:15:36.439Z,97302.72
2022-10-22T18:18:38.069Z,97305.34
2022-10-22T18:21:39.524Z,97299.41
2022-10-22T18:24:41.136Z,97298.97
2022-10-22T18:27:43.118Z,97306.53
2022-10-22T18:30:46.106Z,97307.94
2022-10-22T18:33:48.322Z,97308.13
2022-10-22T18:36:49.868Z,97298.84
2022-10-22T18:39:51.457Z,97296.03
2022-10-22T18:42:53.003Z,97305.84
2022-10-22T18:45:54.492Z,97301.06
2022-10-22T18:48:57.823Z,97304.28
2022-10-22T18:51:59.377Z,97306.91
2022-10-22T18:55:01.037Z,97305.19
2022-10-22T18:58:08.549Z,97303.81
2022-10-22T19:01:12.862Z,97304.19
2022-10-22T19:04:14.951Z,97303.13
2022-10-22T19:07:16.453Z,97306.50
2022-10-22T19:10:18.685Z,97305.25
2022-10-22T19:13:23.112Z,97306.41
2022-10-22T19:16:26.646Z,97303.09
2022-10-22T19:19:28.200Z,97296.63
2022-10-22T19:22:29.850Z,97306.19
2022-10-22T19:25:31.737Z,97305.56
2022-10-22T19:28:33.401Z,97302.69
2022-10-22T19:31:34.897Z,97285.81
2022-10-22T19:34:36.956Z,97291.94
2022-10-22T19:37:38.545Z,97289.28
2022-10-22T19:40:43.048Z,97291.94
2022-10-22T19:43:47.884Z,97300.09
2022-10-22T19:46:49.373Z,97297.66
2022-10-22T19:49:50.942Z,97284.38
2022-10-22T19:52:52.514Z,97285.38
2022-10-22T19:55:54.040Z,97276.63
2022-10-22T19:58:55.652Z,97275.03
2022-10-22T20:01:58.759Z,97280.97
2022-10-22T20:05:00.232Z,97286.63
2022-10-22T20:08:01.680Z,97282.28
2022-10-22T20:11:06.797Z,97284.00
2022-10-22T20:14:08.224Z,97305.72
2022-10-22T20:17:09.736Z,97302.25
2022-10-22T20:20:11.179Z,97307.16
2022-10-22T20:23:12.781Z,97308.38
2022-10-22T20:26:14.384Z,97304.91
2022-10-22T20:29:19.012Z,97297.59
2022-10-22T20:32:22.017Z,97304.59
2022-10-22T20:35:23.516Z,97307.44
2022-10-22T20:38:28.472Z,97299.88
2022-10-22T20:41:30.060Z,97301.44
2022-10-22T20:44:31.639Z,97302.72
2022-10-22T20:47:44.524Z,97303.78
2022-10-22T20:50:54.103Z,97302.63
2022-10-22T20:53:55.742Z,97306.34
2022-10-22T20:56:57.621Z,97299.25
2022-10-22T20:59:59.110Z,97300.56
2022-10-22T21:03:00.608Z,97296.31
2022-10-22T21:06:02.166Z,97300.81
2022-10-22T21:09:08.322Z,97294.47
2022-10-22T21:12:09.922Z,97288.47
2022-10-22T21:15:12.755Z,97292.94
2022-10-22T21:18:14.504Z,97288.03
2022-10-22T21:21:17.586Z,97285.31
2022-10-22T21:24:19.727Z,97282.22
2022-10-22T21:27:21.230Z,97289.53
2022-10-22T21:30:22.846Z,97289.91
2022-10-22T21:33:24.343Z,97279.06
2022-10-22T21:36:26.069Z,97268.59
2022-10-22T21:39:27.539Z,97275.09
2022-10-22T21:42:29.158Z,97273.00
2022-10-22T21:45:30.627Z,97269.72
2022-10-22T21:48:32.140Z,97273.59
2022-10-22T21:51:35.339Z,97271.50
2022-10-22T21:54:37.431Z,97262.28
2022-10-22T21:57:39.089Z,97254.31
2022-10-22T22:00:40.793Z,97252.66
2022-10-22T22:03:45.267Z,97262.47
2022-10-22T22:06:46.809Z,97267.94
2022-10-22T22:09:51.521Z,97260.19
2022-10-22T22:12:53.147Z,97262.66
2022-10-22T22:15:59.668Z,97266.13
2022-10-22T22:22:10.980Z,97265.31
2022-10-22T22:25:12.478Z,97270.78
2022-10-22T22:28:13.971Z,97260.56
2022-10-22T22:31:34.999Z,97251.91
2022-10-22T22:34:36.766Z,97260.50
2022-10-22T22:37:38.341Z,97260.88
2022-10-22T22:40:41.126Z,97257.41
2022-10-22T22:43:42.682Z,97248.38
2022-10-22T22:46:44.347Z,97248.56
2022-10-22T22:49:45.796Z,97255.06
2022-10-22T22:52:47.503Z,97260.38
2022-10-22T22:55:49.237Z,97253.75
2022-10-22T22:58:51.333Z,97258.81
2022-10-22T23:01:52.907Z,97255.31
2022-10-22T23:04:54.422Z,97247.06
2022-10-22T23:07:57.217Z,97257.91
2022-10-22T23:11:09.453Z,97259.56
2022-10-22T23:14:16.759Z,97253.44
2022-10-22T23:17:19.218Z,97250.78
2022-10-22T23:20:20.719Z,97251.59
2022-10-22T23:23:22.240Z,97252.44
2022-10-22T23:26:26.825Z,97257.75
2022-10-22T23:29:30.892Z,97252.44
2022-10-22T23:32:32.369Z,97251.59
2022-10-22T23:35:33.865Z,97248.75
2022-10-22T23:38:36.560Z,97245.56
2022-10-22T23:41:38.366Z,97250.75
2022-10-22T23:44:39.828Z,97245.72
2022-10-22T23:47:41.505Z,97242.13
2022-10-22T23:50:43.190Z,97247.13
2022-10-22T23:53:45.132Z,97248.00
2022-10-22T23:56:47.276Z,97238.25
2022-10-22T23:59:48.712Z,97239.13
